createdAt,value
2019-02-23T00:01:25.062Z,100040.39
2019-02-23T00:03:59.117Z,100035.73
2019-02-23T00:09:13.352Z,100033.73
2019-02-23T00:11:48.444Z,100033.97
2019-02-23T00:14:22.379Z,100022.63
2019-02-23T00:16:56.521Z,100026.03
2019-02-23T00:19:29.890Z,100024.81
2019-02-23T00:22:04.171Z,100018.92
2019-02-23T00:24:39.474Z,100016.72
2019-02-23T00:27:17.980Z,100021.53
2019-02-23T00:30:00.037Z,100015.41
2019-02-23T00:32:34.727Z,100015.41
2019-02-23T00:35:09.456Z,100016.86
2019-02-23T00:37:46.518Z,100008.25
2019-02-23T00:40:21.212Z,100007.42
2019-02-23T00:43:00.826Z,100011.52
2019-02-23T00:45:46.292Z,100012.91
2019-02-23T00:48:20.695Z,100011.02
2019-02-23T00:50:56.719Z,100017.89
2019-02-23T00:53:32.236Z,100010.89
2019-02-23T00:56:05.729Z,100020.81
2019-02-23T00:58:39.575Z,100009.27
2019-02-23T01:01:13.935Z,100004.60
2019-02-23T01:03:49.063Z,100006.73
2019-02-23T01:06:23.659Z,100000.41
2019-02-23T01:08:57.570Z,100002.34
2019-02-23T01:11:32.067Z,99994.51
2019-02-23T01:14:06.997Z,100001.98
2019-02-23T01:16:42.003Z,100000.88
2019-02-23T01:19:18.060Z,99999.45
2019-02-23T01:21:51.927Z,99993.84
2019-02-23T01:24:25.869Z,99991.38
2019-02-23T01:27:02.207Z,99993.39
2019-02-23T01:29:42.224Z,99987.47
2019-02-23T01:32:16.865Z,99982.52
2019-02-23T01:34:52.056Z,99981.62
2019-02-23T01:37:26.857Z,99974.62
2019-02-23T01:40:01.908Z,99969.36
2019-02-23T01:42:35.754Z,99974.55
2019-02-23T01:45:10.375Z,99967.95
2019-02-23T01:47:44.644Z,99962.55
2019-02-23T01:50:25.492Z,99951.83
2019-02-23T01:53:00.812Z,99952.06
2019-02-23T01:55:35.711Z,99946.91
2019-02-23T01:58:10.663Z,99933.27
2019-02-23T02:00:46.905Z,99931.44
2019-02-23T02:03:22.967Z,99930.75
2019-02-23T02:05:58.765Z,99924.61
2019-02-23T02:08:33.569Z,99921.90
2019-02-23T02:11:11.595Z,99919.38
2019-02-23T02:13:48.422Z,99915.64
2019-02-23T02:16:23.115Z,99916.91
2019-02-23T02:18:58.455Z,99920.49
2019-02-23T02:21:33.164Z,99911.84
2019-02-23T02:24:07.644Z,99911.89
2019-02-23T02:26:43.955Z,99898.19
2019-02-23T02:29:17.808Z,99903.27
2019-02-23T02:31:51.887Z,99900.72
2019-02-23T02:34:26.068Z,99892.33
2019-02-23T02:36:59.914Z,99895.19
2019-02-23T02:39:34.115Z,99891.25
2019-02-23T02:42:09.328Z,99888.05
2019-02-23T02:44:44.023Z,99886.72
2019-02-23T02:47:17.878Z,99880.08
2019-02-23T02:49:51.976Z,99876.34
2019-02-23T02:52:28.223Z,99879.36
2019-02-23T02:55:02.407Z,99869.86
2019-02-23T02:57:38.135Z,99869.19
2019-02-23T03:00:14.111Z,99870.35
2019-02-23T03:02:50.617Z,99861.52
2019-02-23T03:05:24.516Z,99858.22
2019-02-23T03:07:58.999Z,99856.53
2019-02-23T03:10:34.175Z,99858.36
2019-02-23T03:13:08.627Z,99855.03
2019-02-23T03:15:44.611Z,99853.34
2019-02-23T03:18:19.776Z,99847.16
2019-02-23T03:20:53.936Z,99831.52
2019-02-23T03:23:28.622Z,99824.48
2019-02-23T03:26:05.290Z,99825.13
2019-02-23T03:28:40.196Z,99816.03
2019-02-23T03:31:14.927Z,99805.70
2019-02-23T03:33:52.185Z,99808.11
2019-02-23T03:36:30.831Z,99785.20
2019-02-23T03:39:12.303Z,99783.87
2019-02-23T03:41:52.772Z,99786.19
2019-02-23T03:44:29.745Z,99773.01
2019-02-23T03:47:05.344Z,99765.69
2019-02-23T03:49:39.419Z,99766.52
2019-02-23T03:52:13.856Z,99758.83
2019-02-23T03:54:49.175Z,99753.16
2019-02-23T03:57:25.905Z,99742.83
2019-02-23T04:00:02.647Z,99742.81
2019-02-23T04:02:37.636Z,99723.03
2019-02-23T04:05:12.954Z,99726.16
2019-02-23T04:07:48.040Z,99713.07
2019-02-23T04:10:22.621Z,99707.88
2019-02-23T04:12:57.094Z,99704.30
2019-02-23T04:15:35.301Z,99699.87
2019-02-23T04:18:11.788Z,99691.67
2019-02-23T04:20:48.221Z,99686.72
2019-02-23T04:23:22.494Z,99669.02
2019-02-23T04:25:58.934Z,99675.57
2019-02-23T04:28:33.521Z,99658.32
2019-02-23T04:31:07.590Z,99657.48
2019-02-23T04:33:42.220Z,99649.27
2019-02-23T04:36:16.103Z,99637.18
2019-02-23T04:38:50.029Z,99640.77
2019-02-23T04:41:23.735Z,99637.38
2019-02-23T04:43:58.958Z,99627.22
2019-02-23T04:46:32.880Z,99631.95
2019-02-23T04:49:06.795Z,99628.73
2019-02-23T04:51:41.517Z,99618.03
2019-02-23T04:54:15.879Z,99608.42
2019-02-23T04:56:50.004Z,99615.77
2019-02-23T04:59:24.364Z,99613.41
2019-02-23T05:01:58.828Z,99607.39
2019-02-23T05:04:33.667Z,99591.25
2019-02-23T05:07:08.454Z,99589.19
2019-02-23T05:09:42.889Z,99584.14
2019-02-23T05:12:19.506Z,99580.73
2019-02-23T05:14:54.193Z,99581.64
2019-02-23T05:17:28.542Z,99568.89
2019-02-23T05:20:04.626Z,99568.56
2019-02-23T05:22:39.404Z,99561.41
2019-02-23T05:25:13.980Z,99546.67
2019-02-23T05:27:49.908Z,99553.34
2019-02-23T05:30:25.051Z,99547.48
2019-02-23T05:33:01.359Z,99540.64
2019-02-23T05:35:35.603Z,99532.21
2019-02-23T05:38:09.198Z,99529.27
2019-02-23T05:40:44.736Z,99521.71
2019-02-23T05:43:19.231Z,99513.50
2019-02-23T05:45:54.191Z,99507.91
2019-02-23T05:48:27.999Z,99501.93
2019-02-23T05:51:01.891Z,99503.58
2019-02-23T05:53:36.026Z,99502.77
2019-02-23T05:56:13.900Z,99498.06
2019-02-23T05:58:46.720Z,99502.75
2019-02-23T06:01:22.631Z,99490.55
2019-02-23T06:03:57.780Z,99489.45
2019-02-23T06:06:32.906Z,99497.66
2019-02-23T06:09:09.357Z,99484.63
2019-02-23T06:11:44.799Z,99473.41
2019-02-23T06:14:26.664Z,99473.05
2019-02-23T06:17:03.906Z,99475.83
2019-02-23T06:19:38.473Z,99467.20
2019-02-23T06:22:14.890Z,99466.09
2019-02-23T06:24:52.524Z,99459.77
2019-02-23T06:27:30.949Z,99455.98
2019-02-23T06:30:06.247Z,99458.00
2019-02-23T06:32:43.379Z,99454.98
2019-02-23T06:35:18.510Z,99449.52
2019-02-23T06:37:53.823Z,99448.59
2019-02-23T06:40:32.397Z,99456.03
2019-02-23T06:43:09.074Z,99452.20
2019-02-23T06:45:46.970Z,99460.28
2019-02-23T06:48:21.989Z,99449.61
2019-02-23T06:50:58.880Z,99453.77
2019-02-23T06:53:34.858Z,99445.84
2019-02-23T06:56:09.656Z,99447.48
2019-02-23T06:58:44.808Z,99447.48
2019-02-23T07:01:21.086Z,99444.19
2019-02-23T07:03:57.355Z,99435.40
2019-02-23T07:06:32.955Z,99439.23
2019-02-23T07:09:07.614Z,99435.17
2019-02-23T07:11:43.261Z,99434.08
2019-02-23T07:14:18.463Z,99427.83
2019-02-23T07:16:53.788Z,99421.81
2019-02-23T07:19:30.617Z,99415.30
2019-02-23T07:22:15.182Z,99416.17
2019-02-23T07:24:46.830Z,99426.28
2019-02-23T07:27:21.774Z,99417.62
2019-02-23T07:29:58.675Z,99425.00
2019-02-23T07:32:33.932Z,99417.67
2019-02-23T07:35:08.887Z,99415.17
2019-02-23T07:37:42.757Z,99407.56
2019-02-23T07:40:19.740Z,99410.02
2019-02-23T07:42:55.566Z,99408.96
2019-02-23T07:45:29.525Z,99398.95
2019-02-23T07:48:04.638Z,99400.05
2019-02-23T07:50:40.024Z,99377.66
2019-02-23T07:53:15.964Z,99378.51
2019-02-23T07:55:57.349Z,99382.12
2019-02-23T07:58:33.826Z,99376.08
2019-02-23T08:01:09.057Z,99362.22
2019-02-23T08:03:44.136Z,99355.36
2019-02-23T08:06:21.886Z,99361.13
2019-02-23T08:08:57.107Z,99359.76
2019-02-23T08:11:32.607Z,99371.28
2019-02-23T08:14:07.125Z,99363.08
2019-02-23T08:16:42.576Z,99356.28
2019-02-23T08:19:17.683Z,99354.92
2019-02-23T08:21:51.617Z,99352.77
2019-02-23T08:24:26.009Z,99345.14
2019-02-23T08:27:01.217Z,99344.63
2019-02-23T08:29:35.207Z,99343.28
2019-02-23T08:32:08.928Z,99358.02
2019-02-23T08:34:43.140Z,99346.59
2019-02-23T08:37:17.237Z,99346.59
2019-02-23T08:39:51.539Z,99338.42
2019-02-23T08:42:25.477Z,99341.72
2019-02-23T08:45:07.004Z,99334.63
2019-02-23T08:47:41.057Z,99329.73
2019-02-23T08:50:19.038Z,99319.91
2019-02-23T08:52:53.517Z,99312.02
2019-02-23T08:55:27.903Z,99298.67
2019-02-23T08:58:02.477Z,99295.69
2019-02-23T09:00:38.409Z,99293.20
2019-02-23T09:03:13.358Z,99283.09
2019-02-23T09:05:47.146Z,99288.28
2019-02-23T09:08:23.174Z,99277.93
2019-02-23T09:10:57.587Z,99278.23
2019-02-23T09:13:32.507Z,99278.20
2019-02-23T09:16:06.712Z,99267.86
2019-02-23T09:18:41.574Z,99272.50
2019-02-23T09:21:15.772Z,99273.84
2019-02-23T09:23:50.419Z,99277.37
2019-02-23T09:26:25.568Z,99275.45
2019-02-23T09:29:01.909Z,99277.88
2019-02-23T09:31:36.580Z,99273.27
2019-02-23T09:34:10.639Z,99281.69
2019-02-23T09:36:46.316Z,99273.52
2019-02-23T09:39:20.235Z,99263.14
2019-02-23T09:42:07.025Z,99261.27
2019-02-23T09:44:32.599Z,99260.42
2019-02-23T09:47:06.358Z,99261.49
2019-02-23T09:49:40.271Z,99262.83
2019-02-23T09:52:18.885Z,99261.45
2019-02-23T09:54:52.635Z,99267.17
2019-02-23T09:57:26.518Z,99267.61
2019-02-23T10:00:01.449Z,99275.17
2019-02-23T10:02:34.686Z,99273.03
2019-02-23T10:05:09.361Z,99271.09
2019-02-23T10:07:43.087Z,99280.83
2019-02-23T10:10:16.956Z,99269.73
2019-02-23T10:12:50.669Z,99268.55
2019-02-23T10:15:24.979Z,99267.14
2019-02-23T10:17:59.524Z,99269.55
2019-02-23T10:20:45.937Z,99272.34
2019-02-23T10:23:24.022Z,99265.01
2019-02-23T10:25:58.529Z,99264.97
2019-02-23T10:28:36.100Z,99271.76
2019-02-23T10:31:11.442Z,99262.77
2019-02-23T10:33:51.348Z,99254.56
2019-02-23T10:36:26.677Z,99261.33
2019-02-23T10:39:08.378Z,99255.58
2019-02-23T10:41:44.992Z,99255.00
2019-02-23T10:44:21.129Z,99242.27
2019-02-23T10:46:56.546Z,99248.38
2019-02-23T10:49:31.390Z,99236.46
2019-02-23T10:52:06.949Z,99237.00
2019-02-23T10:54:41.814Z,99233.16
2019-02-23T10:57:17.823Z,99236.63
2019-02-23T11:00:01.090Z,99243.38
2019-02-23T11:02:39.361Z,99248.84
2019-02-23T11:05:15.569Z,99239.66
2019-02-23T11:07:55.208Z,99234.48
2019-02-23T11:10:30.855Z,99233.16
2019-02-23T11:13:10.474Z,99233.00
2019-02-23T11:15:47.942Z,99243.41
2019-02-23T11:18:24.567Z,99253.42
2019-02-23T11:20:59.600Z,99252.00
2019-02-23T11:23:43.943Z,99247.99
2019-02-23T11:26:11.740Z,99246.53
2019-02-23T11:28:49.771Z,99232.17
2019-02-23T11:31:22.722Z,99237.44
2019-02-23T11:33:57.537Z,99226.21
2019-02-23T11:36:31.784Z,99226.24
2019-02-23T11:39:06.813Z,99222.86
2019-02-23T11:41:44.163Z,99224.28
2019-02-23T11:44:19.240Z,99234.86
2019-02-23T11:47:01.013Z,99240.79
2019-02-23T11:49:31.260Z,99234.80
2019-02-23T11:52:08.981Z,99236.50
2019-02-23T11:54:44.083Z,99233.28
2019-02-23T11:57:18.678Z,99227.75
2019-02-23T11:59:54.261Z,99221.03
2019-02-23T12:02:52.089Z,99210.37
2019-02-23T12:05:24.474Z,99217.81
2019-02-23T12:08:01.831Z,99217.81
2019-02-23T12:10:38.361Z,99215.55
2019-02-23T12:13:16.982Z,99212.89
2019-02-23T12:15:54.887Z,99202.86
2019-02-23T12:18:35.453Z,99213.17
2019-02-23T12:21:14.391Z,99206.42
2019-02-23T12:23:53.864Z,99200.77
2019-02-23T12:26:31.514Z,99190.16
2019-02-23T12:29:13.731Z,99198.59
2019-02-23T12:31:50.158Z,99201.88
2019-02-23T12:34:34.737Z,99197.52
2019-02-23T12:37:10.733Z,99194.20
2019-02-23T12:39:46.901Z,99193.92
2019-02-23T12:42:28.258Z,99196.39
2019-02-23T12:45:09.330Z,99190.67
2019-02-23T12:47:45.012Z,99190.55
2019-02-23T12:50:29.742Z,99175.88
2019-02-23T12:53:06.395Z,99180.80
2019-02-23T12:55:41.901Z,99176.54
2019-02-23T12:58:19.460Z,99176.45
2019-02-23T13:00:57.889Z,99170.52
2019-02-23T13:03:33.322Z,99173.73
2019-02-23T13:06:10.228Z,99179.44
2019-02-23T13:09:21.847Z,99170.52
2019-02-23T13:12:05.732Z,99178.71
2019-02-23T13:15:01.083Z,99165.68
2019-02-23T13:17:52.902Z,99169.75
2019-02-23T13:20:50.313Z,99159.66
2019-02-23T13:27:10.847Z,99165.25
2019-02-23T13:30:17.106Z,99165.47
2019-02-23T13:33:13.457Z,99161.08
2019-02-23T13:35:57.245Z,99160.29
2019-02-23T13:38:56.200Z,99172.18
2019-02-23T13:41:32.845Z,99152.94
2019-02-23T13:44:19.442Z,99156.98
2019-02-23T13:57:14.015Z,99145.27
2019-02-23T13:59:56.332Z,99145.99
2019-02-23T14:03:10.975Z,99149.05
2019-02-23T14:05:55.568Z,99144.20
2019-02-23T14:09:00.401Z,99148.45
2019-02-23T14:11:57.717Z,99154.16
2019-02-23T14:14:42.186Z,99140.67
2019-02-23T14:17:24.595Z,99133.85
2019-02-23T14:20:19.306Z,99137.89
2019-02-23T14:23:10.559Z,99124.67
2019-02-23T14:26:05.003Z,99128.61
2019-02-23T14:29:32.299Z,99122.72
2019-02-23T14:32:15.929Z,99111.97
2019-02-23T14:35:16.755Z,99112.50
2019-02-23T14:38:05.585Z,99116.73
2019-02-23T14:40:50.250Z,99116.13
2019-02-23T14:43:56.734Z,99113.55
2019-02-23T14:46:50.425Z,99115.97
2019-02-23T14:50:03.012Z,99110.13
2019-02-23T14:52:58.538Z,99096.25
2019-02-23T14:55:57.757Z,99108.49
2019-02-23T14:58:50.886Z,99097.10
2019-02-23T15:01:34.017Z,99097.92
2019-02-23T15:04:41.792Z,99106.31
2019-02-23T15:07:22.421Z,99089.53
2019-02-23T15:10:16.679Z,99089.78
2019-02-23T15:13:33.861Z,99093.57
2019-02-23T15:16:53.402Z,99093.57
2019-02-23T15:19:55.253Z,99091.91
2019-02-23T15:22:38.476Z,99098.66
2019-02-23T15:25:45.235Z,99100.27
2019-02-23T15:28:59.287Z,99097.77
2019-02-23T15:32:00.509Z,99096.45
2019-02-23T15:35:11.491Z,99105.34
2019-02-23T15:38:07.607Z,99117.30
2019-02-23T15:41:13.137Z,99123.57
2019-02-23T15:44:10.458Z,99127.01
2019-02-23T15:47:11.709Z,99132.72
2019-02-23T15:49:46.251Z,99130.19
2019-02-23T15:52:21.971Z,99129.47
2019-02-23T15:54:56.105Z,99134.76
2019-02-23T15:57:31.426Z,99132.02
2019-02-23T16:00:05.536Z,99135.91
2019-02-23T16:02:39.699Z,99134.80
2019-02-23T16:05:16.284Z,99135.73
2019-02-23T16:07:50.393Z,99135.97
2019-02-23T16:10:26.740Z,99147.56
2019-02-23T16:13:02.177Z,99149.59
2019-02-23T16:15:40.229Z,99150.38
2019-02-23T16:18:14.641Z,99145.44
2019-02-23T16:20:52.175Z,99140.60
2019-02-23T16:23:34.926Z,99146.92
2019-02-23T16:26:06.713Z,99147.75
2019-02-23T16:28:44.102Z,99154.57
2019-02-23T16:31:18.780Z,99159.11
2019-02-23T16:33:54.407Z,99162.00
2019-02-23T16:36:29.694Z,99161.69
2019-02-23T16:39:04.503Z,99153.30
2019-02-23T16:41:43.121Z,99154.23
2019-02-23T16:44:17.700Z,99163.13
2019-02-23T16:46:52.731Z,99154.72
2019-02-23T16:49:27.797Z,99167.30
2019-02-23T16:52:02.002Z,99162.24
2019-02-23T16:54:36.387Z,99162.59
2019-02-23T16:57:18.913Z,99162.59
2019-02-23T16:59:53.404Z,99160.48
2019-02-23T17:02:27.959Z,99164.11
2019-02-23T17:05:04.770Z,99161.70
2019-02-23T17:07:42.343Z,99156.82
2019-02-23T17:10:16.677Z,99157.98
2019-02-23T17:12:52.188Z,99156.05
2019-02-23T17:15:28.904Z,99167.63
2019-02-23T17:18:03.320Z,99153.97
2019-02-23T17:20:37.170Z,99164.40
2019-02-23T17:23:10.998Z,99157.68
2019-02-23T17:25:46.503Z,99158.86
2019-02-23T17:28:22.305Z,99158.26
2019-02-23T17:30:56.543Z,99171.86
2019-02-23T17:33:30.332Z,99162.45
2019-02-23T17:36:04.073Z,99166.45
2019-02-23T17:38:37.620Z,99167.09
2019-02-23T17:41:12.664Z,99172.95
2019-02-23T17:43:46.582Z,99171.89
2019-02-23T17:46:20.227Z,99172.63
2019-02-23T17:48:53.918Z,99172.33
2019-02-23T17:51:27.556Z,99173.17
2019-02-23T17:54:02.352Z,99177.25
2019-02-23T17:56:35.917Z,99165.09
2019-02-23T17:59:09.439Z,99161.31
2019-02-23T18:01:43.345Z,99168.23
2019-02-23T18:04:25.064Z,99180.13
2019-02-23T18:07:01.255Z,99174.08
2019-02-23T18:09:36.223Z,99164.92
2019-02-23T18:12:10.441Z,99173.91
2019-02-23T18:14:45.251Z,99176.78
2019-02-23T18:17:18.918Z,99178.77
2019-02-23T18:19:53.361Z,99181.03
2019-02-23T18:22:28.334Z,99187.73
2019-02-23T18:25:02.058Z,99185.55
2019-02-23T18:27:35.610Z,99180.83
2019-02-23T18:30:14.066Z,99188.92
2019-02-23T18:32:48.148Z,99189.19
2019-02-23T18:35:22.400Z,99182.84
2019-02-23T18:37:56.513Z,99183.56
2019-02-23T18:40:31.175Z,99177.24
2019-02-23T18:43:06.142Z,99185.94
2019-02-23T18:45:47.202Z,99184.59
2019-02-23T18:48:15.312Z,99186.80
2019-02-23T18:50:49.260Z,99184.30
2019-02-23T18:53:23.918Z,99190.35
2019-02-23T18:55:57.398Z,99188.08
2019-02-23T18:58:33.512Z,99189.39
2019-02-23T19:01:07.874Z,99191.89
2019-02-23T19:03:41.680Z,99186.86
2019-02-23T19:06:15.360Z,99184.41
2019-02-23T19:08:49.024Z,99195.02
2019-02-23T19:11:24.333Z,99187.13
2019-02-23T19:13:58.258Z,99186.06
2019-02-23T19:16:32.702Z,99190.88
2019-02-23T19:19:06.248Z,99192.41
2019-02-23T19:21:40.015Z,99196.86
2019-02-23T19:24:13.649Z,99193.58
2019-02-23T19:26:47.234Z,99193.58
2019-02-23T19:29:21.684Z,99188.07
2019-02-23T19:31:55.143Z,99196.09
2019-02-23T19:34:28.845Z,99189.76
2019-02-23T19:37:02.422Z,99195.60
2019-02-23T19:39:36.025Z,99190.52
2019-02-23T19:42:09.750Z,99193.50
2019-02-23T19:44:43.719Z,99192.91
2019-02-23T19:47:17.471Z,99189.45
2019-02-23T19:49:52.746Z,99183.55
2019-02-23T19:52:26.865Z,99186.16
2019-02-23T19:55:01.707Z,99197.98
2019-02-23T19:57:36.417Z,99200.47
2019-02-23T20:00:11.757Z,99192.41
2019-02-23T20:03:05.060Z,99189.78
2019-02-23T20:05:38.860Z,99189.48
2019-02-23T20:08:12.630Z,99191.50
2019-02-23T20:10:47.054Z,99189.28
2019-02-23T20:13:21.502Z,99193.33
2019-02-23T20:15:55.917Z,99199.69
2019-02-23T20:18:33.264Z,99198.73
2019-02-23T20:21:07.453Z,99198.94
2019-02-23T20:23:43.129Z,99199.75
2019-02-23T20:26:17.164Z,99198.11
2019-02-23T20:28:50.981Z,99201.50
2019-02-23T20:31:26.206Z,99202.10
2019-02-23T20:34:00.006Z,99206.36
2019-02-23T20:36:35.032Z,99208.10
2019-02-23T20:39:10.336Z,99207.42
2019-02-23T20:41:44.114Z,99204.89
2019-02-23T20:44:19.163Z,99208.19
2019-02-23T20:46:52.903Z,99210.59
2019-02-23T20:49:26.558Z,99207.46
2019-02-23T20:52:06.198Z,99208.29
2019-02-23T20:54:39.834Z,99210.16
2019-02-23T20:57:13.937Z,99212.94
2019-02-23T20:59:48.084Z,99215.67
2019-02-23T21:02:27.399Z,99216.20
2019-02-23T21:05:03.078Z,99214.58
2019-02-23T21:07:36.688Z,99213.23
2019-02-23T21:10:13.165Z,99213.45
2019-02-23T21:12:48.909Z,99217.80
2019-02-23T21:15:22.885Z,99222.66
2019-02-23T21:17:56.659Z,99220.05
2019-02-23T21:20:30.749Z,99220.34
2019-02-23T21:23:04.482Z,99217.52
2019-02-23T21:25:38.122Z,99221.25
2019-02-23T21:28:12.717Z,99224.24
2019-02-23T21:30:47.609Z,99227.30
2019-02-23T21:33:22.494Z,99229.91
2019-02-23T21:35:57.919Z,99221.92
2019-02-23T21:38:31.696Z,99231.87
2019-02-23T21:41:05.670Z,99239.78
2019-02-23T21:43:40.027Z,99237.02
2019-02-23T21:46:13.988Z,99243.65
2019-02-23T21:48:47.673Z,99243.34
2019-02-23T21:51:21.644Z,99249.34
2019-02-23T21:53:57.025Z,99241.94
2019-02-23T21:56:31.374Z,99255.97
2019-02-23T21:59:05.241Z,99255.39
2019-02-23T22:01:38.801Z,99261.44
2019-02-23T22:04:13.450Z,99259.78
2019-02-23T22:06:49.100Z,99264.73
2019-02-23T22:09:23.111Z,99257.77
2019-02-23T22:11:58.307Z,99256.80
2019-02-23T22:14:32.451Z,99267.88
2019-02-23T22:17:06.116Z,99263.20
2019-02-23T22:19:39.917Z,99262.39
2019-02-23T22:22:17.947Z,99266.78
2019-02-23T22:24:51.739Z,99263.80
2019-02-23T22:27:31.124Z,99264.19
2019-02-23T22:30:00.578Z,99266.20
2019-02-23T22:32:35.718Z,99275.49
2019-02-23T22:35:09.461Z,99277.35
2019-02-23T22:37:43.471Z,99284.17
2019-02-23T22:40:17.308Z,99287.69
2019-02-23T22:42:51.238Z,99281.11
2019-02-23T22:45:26.483Z,99280.29
2019-02-23T22:48:00.241Z,99291.72
2019-02-23T22:50:35.740Z,99292.48
2019-02-23T22:53:08.986Z,99300.64
2019-02-23T22:55:43.494Z,99297.95
2019-02-23T22:58:17.333Z,99300.40
2019-02-23T23:00:51.226Z,99302.45
2019-02-23T23:03:25.207Z,99311.34
2019-02-23T23:05:59.196Z,99306.72
2019-02-23T23:08:32.934Z,99313.14
2019-02-23T23:11:06.838Z,99318.85
2019-02-23T23:13:40.391Z,99318.25
2019-02-23T23:16:14.250Z,99329.52
2019-02-23T23:18:47.952Z,99332.48
2019-02-23T23:21:22.212Z,99331.60
2019-02-23T23:23:56.322Z,99344.13
2019-02-23T23:26:30.088Z,99339.88
2019-02-23T23:29:03.855Z,99342.50
2019-02-23T23:31:37.665Z,99347.30
2019-02-23T23:34:12.838Z,99350.41
2019-02-23T23:36:46.480Z,99354.70
2019-02-23T23:39:20.597Z,99353.93
2019-02-23T23:41:55.915Z,99357.77
2019-02-23T23:44:29.772Z,99356.62
2019-02-23T23:47:03.547Z,99363.14
2019-02-23T23:49:37.547Z,99365.84
2019-02-23T23:52:11.336Z,99368.16
2019-02-23T23:54:45.199Z,99373.41
2019-02-23T23:57:19.092Z,99366.73
2019-02-23T23:59:53.263Z,99368.77
